createdAt,value
2023-03-01T00:01:19.378Z,76.59
2023-03-01T00:01:58.179Z,76.86
2023-03-01T00:02:58.223Z,76.96
2023-03-01T00:03:58.163Z,76.82
2023-03-01T00:04:58.260Z,76.96
2023-03-01T00:05:58.119Z,77.14
2023-03-01T00:06:58.208Z,77.26
2023-03-01T00:07:58.091Z,77.23
2023-03-01T00:08:58.242Z,77.49
2023-03-01T00:09:58.092Z,77.76
2023-03-01T00:10:58.311Z,77.72
2023-03-01T00:11:58.039Z,77.76
2023-03-01T00:12:58.098Z,77.87
2023-03-01T00:13:58.018Z,77.77
2023-03-01T00:14:58.139Z,77.88
2023-03-01T00:15:58.009Z,77.75
2023-03-01T00:16:58.094Z,77.94
2023-03-01T00:17:57.970Z,78.04
2023-03-01T00:18:59.166Z,77.75
2023-03-01T00:19:57.937Z,77.62
2023-03-01T00:20:58.164Z,77.79
2023-03-01T00:21:57.934Z,77.78
2023-03-01T00:22:57.977Z,77.67
2023-03-01T00:23:57.890Z,77.65
2023-03-01T00:25:20.987Z,77.81
2023-03-01T00:25:57.867Z,77.80
2023-03-01T00:26:57.950Z,77.73
2023-03-01T00:27:57.848Z,78.04
2023-03-01T00:28:57.986Z,78.20
2023-03-01T00:29:57.815Z,78.13
2023-03-01T00:30:57.993Z,78.06
2023-03-01T00:31:57.836Z,77.94
2023-03-01T00:32:57.863Z,77.50
2023-03-01T00:33:57.787Z,77.33
2023-03-01T00:34:57.888Z,77.35
2023-03-01T00:35:57.818Z,77.32
2023-03-01T00:36:57.827Z,77.00
2023-03-01T00:37:57.715Z,76.78
2023-03-01T00:38:57.867Z,76.56
2023-03-01T00:39:57.728Z,76.64
2023-03-01T00:40:57.799Z,76.61
2023-03-01T00:41:57.674Z,77.04
2023-03-01T00:42:57.744Z,77.47
2023-03-01T00:43:57.669Z,77.65
2023-03-01T00:44:57.776Z,77.98
2023-03-01T00:45:57.662Z,78.21
2023-03-01T00:46:57.847Z,78.31
2023-03-01T00:47:57.587Z,78.62
2023-03-01T00:48:57.637Z,78.71
2023-03-01T00:49:57.580Z,78.53
2023-03-01T00:50:57.684Z,78.47
2023-03-01T00:51:57.557Z,78.35
2023-03-01T00:52:58.639Z,78.17
2023-03-01T00:53:57.526Z,78.14
2023-03-01T00:56:06.937Z,77.75
2023-03-01T00:57:06.842Z,77.75
2023-03-01T00:58:06.958Z,77.82
2023-03-01T00:59:06.811Z,77.76
2023-03-01T01:00:09.001Z,77.74
2023-03-01T01:01:06.801Z,77.65
2023-03-01T01:02:06.934Z,77.91
2023-03-01T01:03:06.771Z,77.83
2023-03-01T01:04:06.809Z,77.72
2023-03-01T01:05:06.743Z,78.06
2023-03-01T01:06:06.830Z,78.17
2023-03-01T01:07:06.713Z,78.28
2023-03-01T01:08:06.841Z,78.36
2023-03-01T01:09:06.710Z,78.38
2023-03-01T01:10:07.813Z,78.24
2023-03-01T01:11:06.645Z,78.35
2023-03-01T01:12:07.863Z,78.09
2023-03-01T01:13:06.618Z,78.25
2023-03-01T01:14:06.646Z,78.25
2023-03-01T01:15:06.605Z,78.50
2023-03-01T01:16:06.722Z,78.70
2023-03-01T01:17:06.572Z,78.87
2023-03-01T01:18:07.648Z,78.96
2023-03-01T01:19:06.541Z,79.02
2023-03-01T01:20:06.667Z,79.04
2023-03-01T01:21:06.531Z,78.99
2023-03-01T01:22:06.581Z,78.76
2023-03-01T01:23:06.505Z,78.53
2023-03-01T01:24:06.623Z,78.45
2023-03-01T01:25:06.478Z,78.70
2023-03-01T01:26:06.561Z,78.57
2023-03-01T01:27:06.460Z,78.22
2023-03-01T01:28:06.590Z,78.57
2023-03-01T01:29:06.419Z,78.51
2023-03-01T01:30:27.499Z,78.27
2023-03-01T01:31:06.419Z,78.19
2023-03-01T01:32:06.508Z,78.22
2023-03-01T01:33:06.381Z,78.22
2023-03-01T01:34:06.402Z,78.32
2023-03-01T01:35:06.335Z,77.98
2023-03-01T01:36:08.530Z,77.74
2023-03-01T01:37:06.307Z,77.65
2023-03-01T01:38:06.468Z,77.87
2023-03-01T01:39:06.313Z,78.33
2023-03-01T01:40:06.397Z,78.58
2023-03-01T01:41:06.256Z,78.24
2023-03-01T01:42:06.338Z,77.89
2023-03-01T01:43:06.242Z,77.72
2023-03-01T01:44:06.377Z,77.60
2023-03-01T01:45:06.224Z,77.88
2023-03-01T01:46:06.358Z,78.13
2023-03-01T01:47:06.194Z,78.24
2023-03-01T01:48:08.435Z,78.18
2023-03-01T01:49:06.166Z,77.93
2023-03-01T01:50:06.289Z,77.74
2023-03-01T01:51:06.143Z,77.99
2023-03-01T01:52:06.216Z,78.10
2023-03-01T01:53:06.104Z,77.75
2023-03-01T01:54:06.254Z,77.70
2023-03-01T01:55:06.074Z,77.76
2023-03-01T01:56:06.181Z,77.87
2023-03-01T01:57:06.063Z,77.98
2023-03-01T01:58:06.216Z,77.89
2023-03-01T01:59:06.024Z,77.85
2023-03-01T02:00:06.163Z,77.93
2023-03-01T02:01:06.007Z,78.03
2023-03-01T02:02:06.104Z,77.90
2023-03-01T02:03:06.141Z,78.20
2023-03-01T02:04:06.131Z,77.70
2023-03-01T02:05:05.948Z,77.60
2023-03-01T02:06:08.151Z,77.91
2023-03-01T02:07:05.963Z,78.04
2023-03-01T02:08:08.090Z,78.15
2023-03-01T02:09:05.910Z,78.05
2023-03-01T02:10:05.928Z,77.89
2023-03-01T02:11:05.878Z,77.99
2023-03-01T02:12:05.965Z,78.18
2023-03-01T02:13:05.854Z,77.93
2023-03-01T02:14:06.000Z,77.86
2023-03-01T02:15:05.840Z,77.62
2023-03-01T02:16:06.008Z,77.58
2023-03-01T02:17:05.790Z,77.56
2023-03-01T02:18:06.905Z,77.60
2023-03-01T02:19:05.799Z,77.84
2023-03-01T02:20:05.922Z,78.10
2023-03-01T02:21:05.759Z,78.09
2023-03-01T02:22:05.860Z,78.41
2023-03-01T02:23:05.722Z,78.60
2023-03-01T02:24:26.869Z,78.34
2023-03-01T02:25:05.702Z,78.00
2023-03-01T02:26:05.820Z,77.70
2023-03-01T02:27:05.690Z,78.03
2023-03-01T02:28:05.750Z,77.96
2023-03-01T02:29:05.648Z,77.91
2023-03-01T02:30:26.757Z,78.07
2023-03-01T02:31:05.627Z,78.17
2023-03-01T02:32:05.654Z,78.34
2023-03-01T02:33:05.739Z,78.32
2023-03-01T02:34:05.604Z,78.25
2023-03-01T02:35:05.719Z,78.43
2023-03-01T02:36:05.550Z,77.23
2023-03-01T02:37:05.682Z,77.16
2023-03-01T02:38:05.526Z,77.00
2023-03-01T02:39:05.656Z,76.58
2023-03-01T02:40:05.496Z,76.05
2023-03-01T02:41:05.529Z,76.81
2023-03-01T02:42:05.481Z,77.42
2023-03-01T02:43:05.562Z,77.12
2023-03-01T02:44:05.451Z,77.32
2023-03-01T02:45:05.559Z,76.96
2023-03-01T02:46:05.425Z,76.65
2023-03-01T02:47:06.555Z,77.04
2023-03-01T02:48:05.396Z,77.12
2023-03-01T02:49:05.569Z,77.13
2023-03-01T02:50:05.366Z,77.40
2023-03-01T02:51:05.455Z,77.24
2023-03-01T02:52:05.347Z,77.39
2023-03-01T02:53:27.442Z,77.37
2023-03-01T02:54:05.315Z,77.43
2023-03-01T02:55:05.481Z,77.55
2023-03-01T02:56:05.305Z,77.47
2023-03-01T02:57:05.463Z,77.34
2023-03-01T02:58:05.267Z,77.26
2023-03-01T02:59:05.345Z,77.61
2023-03-01T03:00:05.244Z,77.35
2023-03-01T03:01:05.365Z,77.03
2023-03-01T03:02:05.214Z,77.08
2023-03-01T03:03:05.370Z,76.79
2023-03-01T03:04:05.225Z,76.74
2023-03-01T03:05:06.274Z,76.90
2023-03-01T03:06:05.162Z,76.54
2023-03-01T03:07:05.305Z,76.79
2023-03-01T03:08:05.172Z,76.57
2023-03-01T03:09:05.274Z,76.33
2023-03-01T03:10:05.120Z,76.52
2023-03-01T03:11:05.153Z,76.81
2023-03-01T03:12:05.093Z,76.79
2023-03-01T03:13:05.194Z,77.09
2023-03-01T03:14:05.061Z,77.45
2023-03-01T03:15:06.213Z,76.05
2023-03-01T03:16:05.086Z,75.26
2023-03-01T03:17:28.159Z,75.17
2023-03-01T03:18:05.010Z,75.25
2023-03-01T03:19:05.091Z,75.38
2023-03-01T03:20:04.987Z,74.93
2023-03-01T03:21:06.133Z,74.73
2023-03-01T03:22:04.950Z,74.95
2023-03-01T03:23:05.070Z,74.74
2023-03-01T03:24:04.920Z,74.79
2023-03-01T03:25:05.110Z,74.83
2023-03-01T03:26:04.899Z,75.22
2023-03-01T03:27:07.035Z,75.13
2023-03-01T03:28:04.880Z,75.45
2023-03-01T03:29:04.971Z,75.42
2023-03-01T03:30:04.861Z,75.19
2023-03-01T03:31:05.012Z,75.02
2023-03-01T03:32:04.937Z,75.23
2023-03-01T03:33:04.987Z,75.32
2023-03-01T03:34:04.806Z,75.37
2023-03-01T03:35:04.975Z,75.54
2023-03-01T03:36:04.815Z,75.21
2023-03-01T03:38:14.301Z,75.22
2023-03-01T03:39:14.080Z,75.24
2023-03-01T03:40:14.233Z,75.28
2023-03-01T03:41:14.063Z,75.54
2023-03-01T03:42:15.222Z,75.76
2023-03-01T03:43:14.032Z,75.97
2023-03-01T03:44:14.152Z,76.59
2023-03-01T03:45:14.009Z,76.71
2023-03-01T03:46:14.166Z,76.16
2023-03-01T03:47:13.993Z,76.43
2023-03-01T03:48:14.078Z,76.19
2023-03-01T03:49:13.965Z,76.26
2023-03-01T03:50:14.174Z,76.10
2023-03-01T03:51:13.960Z,76.61
2023-03-01T03:52:14.039Z,76.09
2023-03-01T03:53:13.906Z,76.10
2023-03-01T03:55:23.466Z,75.50
2023-03-01T03:56:23.253Z,75.50
2023-03-01T03:57:23.293Z,75.70
2023-03-01T03:58:23.227Z,76.57
2023-03-01T03:59:24.350Z,76.54
2023-03-01T04:00:23.202Z,75.75
2023-03-01T04:01:23.373Z,75.57
2023-03-01T04:02:23.348Z,75.79
2023-03-01T04:03:23.292Z,75.55
2023-03-01T04:04:23.154Z,75.07
2023-03-01T04:05:44.419Z,75.21
2023-03-01T04:06:23.126Z,75.65
2023-03-01T04:07:23.217Z,75.15
2023-03-01T04:08:23.118Z,75.01
2023-03-01T04:09:23.207Z,74.58
2023-03-01T04:10:23.063Z,74.54
2023-03-01T04:11:23.247Z,74.54
2023-03-01T04:12:23.044Z,74.42
2023-03-01T04:13:23.236Z,74.31
2023-03-01T04:14:23.018Z,74.42
2023-03-01T04:15:23.104Z,74.77
2023-03-01T04:16:23.110Z,74.90
2023-03-01T04:17:23.042Z,75.36
2023-03-01T04:18:22.980Z,75.62
2023-03-01T04:19:23.155Z,75.68
2023-03-01T04:20:22.947Z,75.67
2023-03-01T04:21:23.115Z,75.38
2023-03-01T04:22:22.911Z,75.24
2023-03-01T04:23:23.065Z,74.92
2023-03-01T04:24:22.880Z,75.28
2023-03-01T04:25:22.936Z,75.39
2023-03-01T04:26:22.872Z,75.16
2023-03-01T04:27:22.920Z,74.99
2023-03-01T04:28:22.849Z,75.04
2023-03-01T04:29:22.958Z,74.98
2023-03-01T04:30:22.821Z,75.16
2023-03-01T04:31:23.021Z,75.39
2023-03-01T04:32:22.792Z,75.48
2023-03-01T04:33:22.829Z,75.76
2023-03-01T04:34:22.763Z,75.85
2023-03-01T04:35:24.038Z,76.00
2023-03-01T04:36:23.006Z,75.64
2023-03-01T04:37:22.847Z,75.58
2023-03-01T04:38:22.744Z,75.54
2023-03-01T04:39:22.826Z,75.64
2023-03-01T04:40:22.677Z,75.95
2023-03-01T04:41:23.797Z,75.97
2023-03-01T04:42:22.654Z,76.19
2023-03-01T04:43:22.756Z,76.12
2023-03-01T04:44:22.636Z,76.11
2023-03-01T04:45:22.737Z,76.32
2023-03-01T04:46:22.673Z,76.41
2023-03-01T04:47:22.668Z,76.60
2023-03-01T04:48:22.572Z,76.75
2023-03-01T04:49:22.766Z,76.77
2023-03-01T04:50:22.568Z,76.96
2023-03-01T04:51:23.680Z,77.21
2023-03-01T04:52:22.519Z,76.89
2023-03-01T04:53:22.592Z,76.91
2023-03-01T04:54:22.476Z,76.87
2023-03-01T04:55:22.565Z,77.11
2023-03-01T04:56:22.477Z,77.36
2023-03-01T04:57:22.549Z,77.31
2023-03-01T04:58:22.473Z,77.05
2023-03-01T04:59:43.563Z,76.42
2023-03-01T05:00:22.416Z,76.23
2023-03-01T05:01:22.591Z,76.20
2023-03-01T05:02:22.425Z,76.14
2023-03-01T05:03:23.484Z,76.00
2023-03-01T05:04:22.384Z,76.14
2023-03-01T05:05:22.603Z,76.03
2023-03-01T05:06:22.376Z,75.95
2023-03-01T05:07:22.477Z,76.14
2023-03-01T05:08:22.305Z,76.23
2023-03-01T05:09:22.457Z,76.29
2023-03-01T05:10:22.294Z,76.50
2023-03-01T05:11:22.404Z,76.69
2023-03-01T05:12:22.252Z,76.70
2023-03-01T05:13:22.383Z,76.95
2023-03-01T05:14:22.282Z,77.16
2023-03-01T05:15:22.380Z,76.71
2023-03-01T05:16:22.201Z,76.16
2023-03-01T05:17:22.312Z,76.13
2023-03-01T05:18:22.226Z,76.50
2023-03-01T05:19:22.290Z,76.20
2023-03-01T05:20:22.152Z,76.16
2023-03-01T05:21:22.301Z,76.21
2023-03-01T05:22:22.132Z,76.25
2023-03-01T05:23:22.212Z,76.44
2023-03-01T05:24:22.100Z,76.17
2023-03-01T05:25:22.369Z,75.93
2023-03-01T05:26:29.185Z,75.86
2023-03-01T05:27:23.070Z,76.09
2023-03-01T05:28:44.150Z,77.29
2023-03-01T05:29:22.039Z,77.16
2023-03-01T05:30:22.180Z,76.90
2023-03-01T05:31:22.102Z,77.01
2023-03-01T05:32:22.159Z,77.04
2023-03-01T05:33:21.969Z,76.86
2023-03-01T05:34:23.080Z,76.86
2023-03-01T05:35:21.977Z,76.78
2023-03-01T05:36:22.096Z,76.55
2023-03-01T05:37:21.949Z,76.41
2023-03-01T05:38:22.024Z,76.83
2023-03-01T05:39:21.912Z,76.88
2023-03-01T05:40:22.079Z,76.65
2023-03-01T05:41:21.879Z,76.24
2023-03-01T05:42:21.988Z,75.72
2023-03-01T05:43:21.878Z,75.68
2023-03-01T05:44:21.928Z,75.73
2023-03-01T05:45:21.916Z,75.78
2023-03-01T05:47:31.246Z,76.37
2023-03-01T05:48:31.055Z,76.37
2023-03-01T05:49:31.082Z,76.00
2023-03-01T05:50:31.311Z,76.19
2023-03-01T05:51:31.116Z,75.99
2023-03-01T05:52:30.995Z,75.40
2023-03-01T05:53:31.146Z,75.57
2023-03-01T05:54:30.983Z,75.73
2023-03-01T05:55:31.153Z,75.11
2023-03-01T05:56:31.259Z,74.95
2023-03-01T05:57:31.017Z,75.36
2023-03-01T05:58:30.951Z,75.29
2023-03-01T05:59:30.973Z,75.32
2023-03-01T06:00:30.912Z,75.23
2023-03-01T06:01:33.086Z,75.26
2023-03-01T06:02:30.857Z,75.20
2023-03-01T06:03:31.026Z,75.12
2023-03-01T06:04:30.872Z,74.95
2023-03-01T06:05:30.980Z,74.93
2023-03-01T06:06:31.317Z,75.32
2023-03-01T06:07:32.898Z,75.35
2023-03-01T06:08:30.784Z,75.18
2023-03-01T06:09:30.843Z,75.56
2023-03-01T06:10:30.767Z,75.38
2023-03-01T06:11:30.885Z,75.49
2023-03-01T06:12:30.747Z,75.55
2023-03-01T06:13:30.915Z,75.33
2023-03-01T06:14:30.709Z,75.21
2023-03-01T06:15:30.794Z,75.67
2023-03-01T06:16:31.059Z,75.96
2023-03-01T06:17:30.784Z,75.95
2023-03-01T06:18:30.668Z,75.77
2023-03-01T06:19:30.721Z,75.52
2023-03-01T06:20:30.634Z,75.43
2023-03-01T06:21:30.784Z,75.38
2023-03-01T06:22:30.615Z,75.27
2023-03-01T06:23:30.788Z,75.94
2023-03-01T06:24:30.595Z,76.30
2023-03-01T06:25:30.641Z,76.09
2023-03-01T06:26:30.804Z,75.76
2023-03-01T06:27:30.644Z,75.87
2023-03-01T06:28:30.531Z,75.40
2023-03-01T06:29:51.613Z,75.44
2023-03-01T06:30:30.493Z,75.50
2023-03-01T06:31:30.646Z,75.87
2023-03-01T06:32:30.487Z,76.15
2023-03-01T06:33:30.656Z,76.05
2023-03-01T06:34:30.434Z,76.15
2023-03-01T06:35:31.656Z,75.55
2023-03-01T06:36:30.693Z,75.11
2023-03-01T06:37:30.532Z,75.46
2023-03-01T06:38:30.401Z,75.40
2023-03-01T06:39:30.462Z,75.39
2023-03-01T06:40:30.393Z,75.14
2023-03-01T06:41:30.554Z,75.26
2023-03-01T06:42:30.336Z,75.34
2023-03-01T06:43:30.439Z,75.27
2023-03-01T06:44:30.320Z,75.12
2023-03-01T06:45:30.369Z,75.39
2023-03-01T06:46:30.631Z,75.13
2023-03-01T06:47:30.452Z,75.14
2023-03-01T06:48:30.262Z,75.04
2023-03-01T06:49:30.351Z,75.42
2023-03-01T06:50:30.261Z,75.27
2023-03-01T06:51:30.392Z,75.32
2023-03-01T06:52:30.209Z,75.43
2023-03-01T06:53:30.267Z,75.44
2023-03-01T06:54:30.187Z,75.23
2023-03-01T06:55:30.256Z,75.23
2023-03-01T06:56:30.641Z,75.20
2023-03-01T06:57:30.281Z,75.55
2023-03-01T06:58:30.145Z,75.34
2023-03-01T06:59:30.258Z,75.23
2023-03-01T07:00:30.238Z,75.17
2023-03-01T07:01:51.263Z,75.26
2023-03-01T07:02:30.107Z,75.47
2023-03-01T07:03:36.374Z,75.23
2023-03-01T07:04:30.071Z,74.82
2023-03-01T07:05:30.223Z,74.92
2023-03-01T07:06:30.298Z,75.18
2023-03-01T07:07:30.062Z,75.07
2023-03-01T07:08:29.993Z,74.84
2023-03-01T07:09:30.195Z,74.96
2023-03-01T07:10:29.988Z,75.41
2023-03-01T07:11:30.116Z,75.76
2023-03-01T07:12:29.946Z,75.07
2023-03-01T07:13:30.084Z,74.81
2023-03-01T07:14:29.941Z,74.37
2023-03-01T07:15:29.995Z,74.71
2023-03-01T07:16:30.218Z,74.66
2023-03-01T07:17:31.004Z,74.21
2023-03-01T07:18:29.873Z,74.50
2023-03-01T07:19:30.983Z,74.96
2023-03-01T07:20:29.887Z,74.27
2023-03-01T07:21:29.908Z,74.29
2023-03-01T07:22:29.818Z,73.75
2023-03-01T07:23:29.900Z,74.16
2023-03-01T07:24:29.784Z,74.76
2023-03-01T07:25:29.873Z,74.86
2023-03-01T07:26:30.029Z,74.98
2023-03-01T07:27:29.901Z,74.54
2023-03-01T07:28:29.743Z,74.48
2023-03-01T07:29:29.794Z,73.49
2023-03-01T07:30:29.729Z,73.58
2023-03-01T07:31:29.786Z,73.65
2023-03-01T07:32:29.806Z,73.42
2023-03-01T07:33:29.813Z,73.55
2023-03-01T07:34:29.668Z,73.74
2023-03-01T07:35:30.870Z,73.90
2023-03-01T07:36:29.858Z,73.63
2023-03-01T07:37:29.790Z,73.73
2023-03-01T07:38:29.609Z,73.63
2023-03-01T07:39:29.722Z,73.53
2023-03-01T07:40:29.579Z,73.10
2023-03-01T07:41:29.708Z,73.35
2023-03-01T07:42:29.549Z,73.00
2023-03-01T07:43:29.689Z,72.39
2023-03-01T07:44:29.518Z,72.69
2023-03-01T07:45:29.666Z,72.90
2023-03-01T07:46:29.854Z,72.44
2023-03-01T07:47:29.721Z,72.43
2023-03-01T07:48:29.598Z,72.86
2023-03-01T07:49:29.679Z,72.73
2023-03-01T07:50:29.453Z,72.22
2023-03-01T07:51:29.543Z,71.81
2023-03-01T07:52:29.421Z,71.71
2023-03-01T07:53:29.525Z,71.49
2023-03-01T07:54:29.421Z,71.34
2023-03-01T07:55:29.527Z,71.46
2023-03-01T07:56:29.662Z,71.87
2023-03-01T07:57:29.464Z,70.87
2023-03-01T07:58:29.344Z,70.58
2023-03-01T07:59:29.417Z,70.97
2023-03-01T08:00:29.317Z,70.98
2023-03-01T08:01:29.444Z,71.35
2023-03-01T08:02:29.286Z,70.96
2023-03-01T08:03:29.456Z,70.24
2023-03-01T08:04:29.348Z,70.08
2023-03-01T08:05:31.475Z,70.16
2023-03-01T08:06:29.601Z,70.07
2023-03-01T08:07:29.312Z,70.58
2023-03-01T08:08:29.221Z,70.52
2023-03-01T08:09:29.242Z,70.69
2023-03-01T08:10:29.174Z,70.25
2023-03-01T08:11:31.370Z,70.24
2023-03-01T08:12:29.152Z,69.90
2023-03-01T08:13:29.314Z,70.00
2023-03-01T08:14:29.120Z,69.61
2023-03-01T08:15:29.247Z,70.37
2023-03-01T08:16:29.577Z,69.96
2023-03-01T08:17:29.282Z,69.86
2023-03-01T08:18:29.081Z,69.69
2023-03-01T08:19:29.140Z,69.67
2023-03-01T08:20:29.051Z,69.58
2023-03-01T08:21:29.231Z,69.61
2023-03-01T08:22:29.012Z,70.11
2023-03-01T08:23:29.144Z,69.46
2023-03-01T08:24:28.986Z,69.48
2023-03-01T08:25:29.021Z,69.36
2023-03-01T08:26:29.069Z,69.28
2023-03-01T08:27:29.067Z,69.36
2023-03-01T08:28:28.944Z,70.02
2023-03-01T08:29:29.055Z,69.47
2023-03-01T08:30:28.911Z,69.22
2023-03-01T08:31:30.110Z,69.44
2023-03-01T08:32:28.918Z,69.18
2023-03-01T08:33:29.123Z,68.69
2023-03-01T08:34:28.856Z,69.20
2023-03-01T08:35:29.000Z,68.86
2023-03-01T08:36:29.323Z,68.68
2023-03-01T08:37:28.940Z,68.27
2023-03-01T08:38:28.799Z,68.05
2023-03-01T08:39:29.927Z,68.79
2023-03-01T08:40:28.766Z,68.44
2023-03-01T08:41:28.972Z,68.86
2023-03-01T08:42:28.747Z,68.02
2023-03-01T08:43:28.841Z,67.87
2023-03-01T08:44:28.716Z,67.94
2023-03-01T08:45:28.824Z,67.71
2023-03-01T08:46:28.737Z,68.19
2023-03-01T08:47:28.867Z,68.86
2023-03-01T08:48:28.678Z,68.75
2023-03-01T08:49:28.745Z,68.34
2023-03-01T08:50:28.656Z,68.81
2023-03-01T08:51:28.776Z,69.35
2023-03-01T08:52:28.625Z,68.67
2023-03-01T08:53:28.773Z,68.61
2023-03-01T08:54:28.604Z,68.43
2023-03-01T08:55:28.664Z,68.40
2023-03-01T08:56:28.907Z,68.50
2023-03-01T08:57:29.715Z,67.92
2023-03-01T08:58:28.539Z,68.66
2023-03-01T08:59:28.678Z,68.09
2023-03-01T09:00:28.507Z,68.10
2023-03-01T09:01:28.666Z,68.08
2023-03-01T09:02:28.509Z,67.79
2023-03-01T09:03:28.612Z,67.75
2023-03-01T09:04:28.464Z,67.73
2023-03-01T09:05:29.117Z,67.59
2023-03-01T09:06:28.791Z,67.81
2023-03-01T09:07:29.853Z,67.59
2023-03-01T09:08:28.566Z,67.71
2023-03-01T09:09:28.509Z,68.14
2023-03-01T09:10:28.394Z,67.63
2023-03-01T09:11:28.536Z,67.46
2023-03-01T09:12:28.440Z,67.37
2023-03-01T09:13:28.484Z,67.40
2023-03-01T09:14:28.381Z,67.84
2023-03-01T09:15:28.406Z,67.31
2023-03-01T09:16:28.524Z,67.25
2023-03-01T09:17:28.581Z,67.93
2023-03-01T09:18:28.296Z,67.73
2023-03-01T09:19:29.534Z,66.96
2023-03-01T09:20:28.271Z,67.25
2023-03-01T09:21:40.058Z,67.21
2023-03-01T09:22:29.270Z,67.63
2023-03-01T09:23:28.389Z,67.76
2023-03-01T09:24:28.257Z,67.38
2023-03-01T09:25:49.746Z,67.29
2023-03-01T09:26:28.174Z,67.11
2023-03-01T09:27:28.336Z,67.33
2023-03-01T09:28:30.268Z,67.92
2023-03-01T09:29:28.152Z,67.44
2023-03-01T09:30:28.124Z,66.46
2023-03-01T09:31:28.217Z,65.95
2023-03-01T09:32:28.148Z,66.05
2023-03-01T09:33:28.225Z,66.53
2023-03-01T09:34:28.132Z,67.27
2023-03-01T09:35:28.230Z,67.34
2023-03-01T09:36:28.070Z,66.40
2023-03-01T09:37:28.217Z,65.77
2023-03-01T09:38:28.208Z,64.14
2023-03-01T09:39:28.283Z,63.96
2023-03-01T09:40:28.010Z,63.46
2023-03-01T09:41:29.093Z,64.03
2023-03-01T09:42:27.952Z,64.09
2023-03-01T09:43:28.137Z,64.31
2023-03-01T09:44:27.953Z,64.22
2023-03-01T09:45:28.052Z,65.13
2023-03-01T09:46:28.063Z,64.61
2023-03-01T09:47:28.083Z,64.04
2023-03-01T09:48:27.892Z,63.93
2023-03-01T09:49:27.913Z,64.12
2023-03-01T09:50:27.861Z,64.76
2023-03-01T09:51:28.032Z,64.55
2023-03-01T09:52:27.852Z,64.88
2023-03-01T09:53:28.110Z,64.66
2023-03-01T09:54:27.804Z,64.77
2023-03-01T09:55:27.923Z,64.49
2023-03-01T09:56:27.780Z,64.84
2023-03-01T09:57:27.854Z,65.51
2023-03-01T09:58:27.825Z,64.45
2023-03-01T09:59:27.795Z,64.99
2023-03-01T10:00:27.723Z,64.45
2023-03-01T10:01:29.195Z,63.96
2023-03-01T10:02:27.703Z,64.34
2023-03-01T10:03:27.896Z,64.50
2023-03-01T10:04:27.757Z,65.10
2023-03-01T10:05:28.884Z,65.00
2023-03-01T10:06:34.912Z,64.93
2023-03-01T10:07:28.718Z,64.51
2023-03-01T10:08:27.853Z,64.45
2023-03-01T10:09:27.622Z,63.92
2023-03-01T10:10:27.794Z,63.81
2023-03-01T10:11:27.645Z,64.20
2023-03-01T10:12:27.680Z,64.75
2023-03-01T10:13:27.623Z,64.16
2023-03-01T10:14:27.775Z,64.71
2023-03-01T10:15:27.536Z,64.67
2023-03-01T10:16:27.702Z,64.49
2023-03-01T10:17:27.522Z,64.02
2023-03-01T10:18:27.687Z,64.46
2023-03-01T10:19:27.490Z,63.97
2023-03-01T10:20:27.520Z,62.98
2023-03-01T10:21:27.616Z,63.21
2023-03-01T10:22:27.602Z,64.41
2023-03-01T10:23:27.465Z,63.56
2023-03-01T10:24:27.481Z,64.10
2023-03-01T10:25:27.392Z,64.10
2023-03-01T10:26:27.510Z,63.77
2023-03-01T10:27:27.369Z,61.95
2023-03-01T10:28:27.519Z,61.98
2023-03-01T10:29:27.341Z,63.13
2023-03-01T10:30:27.382Z,63.85
2023-03-01T10:31:27.451Z,63.57
2023-03-01T10:32:27.439Z,64.35
2023-03-01T10:33:27.408Z,61.58
2023-03-01T10:34:27.661Z,60.82
2023-03-01T10:35:27.267Z,61.68
2023-03-01T10:36:27.460Z,62.46
2023-03-01T10:37:27.240Z,62.60
2023-03-01T10:38:27.441Z,59.61
2023-03-01T10:39:27.209Z,58.34
2023-03-01T10:40:27.320Z,60.09
2023-03-01T10:41:27.192Z,59.94
2023-03-01T10:42:27.305Z,59.45
2023-03-01T10:43:27.167Z,59.14
2023-03-01T10:44:27.251Z,60.46
2023-03-01T10:45:27.139Z,62.01
2023-03-01T10:46:27.447Z,61.97
2023-03-01T10:47:27.109Z,59.91
2023-03-01T10:48:27.367Z,61.43
2023-03-01T10:49:27.243Z,58.96
2023-03-01T10:50:27.154Z,59.36
2023-03-01T10:51:27.278Z,59.15
2023-03-01T10:52:27.138Z,59.73
2023-03-01T10:53:27.039Z,57.24
2023-03-01T10:54:27.109Z,56.51
2023-03-01T10:55:27.031Z,56.93
2023-03-01T10:56:27.153Z,57.16
2023-03-01T10:57:27.012Z,57.17
2023-03-01T10:58:27.163Z,57.35
2023-03-01T10:59:26.948Z,57.78
2023-03-01T11:00:27.028Z,59.67
2023-03-01T11:01:27.087Z,57.28
2023-03-01T11:02:27.365Z,58.09
2023-03-01T11:03:26.924Z,58.76
2023-03-01T11:04:29.112Z,57.63
2023-03-01T11:05:26.913Z,58.65
2023-03-01T11:06:27.131Z,57.37
2023-03-01T11:07:26.849Z,57.02
2023-03-01T11:08:26.977Z,57.10
2023-03-01T11:09:26.810Z,57.84
2023-03-01T11:10:26.962Z,56.36
2023-03-01T11:11:26.785Z,57.85
2023-03-01T11:12:26.955Z,57.19
2023-03-01T11:13:26.770Z,56.34
2023-03-01T11:14:28.033Z,55.35
2023-03-01T11:15:26.770Z,54.82
2023-03-01T11:16:26.941Z,56.30
2023-03-01T11:17:26.744Z,59.04
2023-03-01T11:18:44.230Z,58.03
2023-03-01T11:19:27.688Z,57.68
2023-03-01T11:20:28.389Z,56.12
2023-03-01T11:21:26.660Z,55.15
2023-03-01T11:22:26.793Z,55.80
2023-03-01T11:23:26.670Z,56.63
2023-03-01T11:24:26.738Z,55.85
2023-03-01T11:25:26.605Z,55.89
2023-03-01T11:26:26.887Z,55.51
2023-03-01T11:27:26.584Z,56.58
2023-03-01T11:28:28.220Z,57.00
2023-03-01T11:29:26.551Z,57.29
2023-03-01T11:30:26.668Z,56.45
2023-03-01T11:31:26.660Z,56.04
2023-03-01T11:32:26.808Z,56.79
2023-03-01T11:33:26.494Z,57.53
2023-03-01T11:34:26.568Z,57.13
2023-03-01T11:35:26.455Z,58.34
2023-03-01T11:36:26.600Z,58.27
2023-03-01T11:37:26.449Z,57.35
2023-03-01T11:38:28.723Z,55.80
2023-03-01T11:39:26.431Z,56.29
2023-03-01T11:40:28.532Z,56.89
2023-03-01T11:41:26.390Z,56.60
2023-03-01T11:42:26.555Z,57.48
2023-03-01T11:43:26.345Z,56.73
2023-03-01T11:44:26.393Z,55.71
2023-03-01T11:45:26.336Z,54.94
2023-03-01T11:46:26.594Z,54.90
2023-03-01T11:47:26.469Z,57.38
2023-03-01T11:48:26.908Z,55.62
2023-03-01T11:49:26.276Z,55.79
2023-03-01T11:50:26.548Z,55.51
2023-03-01T11:51:26.262Z,55.94
2023-03-01T11:52:29.663Z,57.19
2023-03-01T11:53:26.235Z,58.51
2023-03-01T11:54:26.257Z,56.79
2023-03-01T11:55:26.214Z,57.47
2023-03-01T11:56:27.335Z,57.51
2023-03-01T11:57:34.140Z,57.45
2023-03-01T11:58:27.165Z,58.25
2023-03-01T11:59:26.244Z,56.10
2023-03-01T12:00:26.149Z,55.63
2023-03-01T12:01:26.242Z,56.07
2023-03-01T12:02:26.139Z,55.81
2023-03-01T12:03:26.226Z,56.69
2023-03-01T12:04:26.113Z,57.13
2023-03-01T12:05:26.365Z,55.50
2023-03-01T12:06:26.075Z,55.35
2023-03-01T12:07:27.092Z,55.03
2023-03-01T12:08:26.023Z,57.00
2023-03-01T12:09:26.142Z,55.62
2023-03-01T12:10:25.983Z,55.87
2023-03-01T12:11:26.127Z,57.72
2023-03-01T12:12:26.130Z,57.28
2023-03-01T12:13:26.061Z,56.31
2023-03-01T12:14:25.940Z,56.74
2023-03-01T12:15:26.153Z,54.53
2023-03-01T12:16:38.328Z,54.18
2023-03-01T12:17:26.968Z,54.69
2023-03-01T12:18:26.003Z,57.35
2023-03-01T12:19:25.923Z,57.43
2023-03-01T12:20:26.032Z,55.03
2023-03-01T12:21:25.852Z,56.21
2023-03-01T12:22:25.964Z,57.12
2023-03-01T12:23:25.817Z,56.79
2023-03-01T12:24:25.883Z,57.84
2023-03-01T12:25:25.804Z,58.01
2023-03-01T12:26:25.924Z,57.19
2023-03-01T12:27:25.773Z,56.18
2023-03-01T12:28:25.864Z,55.76
2023-03-01T12:29:25.733Z,55.59
2023-03-01T12:30:25.793Z,55.10
2023-03-01T12:31:25.743Z,55.54
2023-03-01T12:32:25.873Z,55.14
2023-03-01T12:33:25.745Z,55.64
2023-03-01T12:34:25.826Z,56.23
2023-03-01T12:35:25.690Z,55.74
2023-03-01T12:36:25.802Z,57.40
2023-03-01T12:37:25.767Z,58.67
2023-03-01T12:38:25.743Z,57.90
2023-03-01T12:39:25.634Z,57.28
2023-03-01T12:40:27.770Z,57.45
2023-03-01T12:41:25.573Z,56.96
2023-03-01T12:42:25.609Z,58.38
2023-03-01T12:43:25.552Z,58.37
2023-03-01T12:44:25.841Z,56.84
2023-03-01T12:45:25.563Z,56.08
2023-03-01T12:46:25.702Z,56.60
2023-03-01T12:47:25.507Z,55.45
2023-03-01T12:48:25.512Z,56.19
2023-03-01T12:49:25.483Z,56.35
2023-03-01T12:50:25.560Z,55.65
2023-03-01T12:51:25.479Z,56.78
2023-03-01T12:52:26.516Z,56.06
2023-03-01T12:53:25.414Z,55.96
2023-03-01T12:54:25.524Z,55.45
2023-03-01T12:55:25.741Z,56.84
2023-03-01T12:56:25.696Z,55.62
2023-03-01T12:57:25.395Z,55.15